Terminal Aerodrome Forecast
Issued by NWS Paducah, KY

Home | Current Version | Previous Version | Graphics & Text | Print | Product List | Glossary On
Versions: 1 2 3 4 5 6 7 8 9 10 11 12 13 14 15 16
000
FTUS43 KPAH 240900 AAA
TAFPAH
TAF AMD
KPAH 240928Z 2409/2506 00000KT P6SM SCT050
      TEMPO 2410/2414 5SM BR BKN050
     FM241400 VRB03KT P6SM SCT150
     FM250100 VRB02KT P6SM SCT250=

USA.gov is the U.S. government's official web portal to all federal, state and local government web resources and services.